createdAt,value
2022-10-04T00:00:49.800Z,101517.03
2022-10-04T00:03:21.612Z,101520.72
2022-10-04T00:05:53.110Z,101514.94
2022-10-04T00:08:24.922Z,101533.06
2022-10-04T00:10:56.402Z,101518.66
2022-10-04T00:13:28.237Z,101535.75
2022-10-04T00:15:59.804Z,101524.41
2022-10-04T00:18:32.044Z,101528.09
2022-10-04T00:21:03.584Z,101535.91
2022-10-04T00:23:35.576Z,101526.25
2022-10-04T00:26:07.101Z,101538.00
2022-10-04T00:28:40.307Z,101540.50
2022-10-04T00:31:11.837Z,101537.38
2022-10-04T00:33:43.323Z,101543.56
2022-10-04T00:36:14.804Z,101544.19
2022-10-04T00:38:46.592Z,101538.63
2022-10-04T00:41:18.085Z,101546.44
2022-10-04T00:43:49.851Z,101541.31
2022-10-04T00:46:22.372Z,101538.06
2022-10-04T00:48:54.220Z,101539.28
2022-10-04T00:51:25.894Z,101543.16
2022-10-04T00:53:57.941Z,101528.16
2022-10-04T00:56:29.438Z,101533.50
2022-10-04T00:59:01.872Z,101529.41
2022-10-04T01:01:33.889Z,101525.91
2022-10-04T01:04:05.709Z,101530.59
2022-10-04T01:06:37.210Z,101539.06
2022-10-04T01:09:09.206Z,101530.88
2022-10-04T01:11:40.946Z,101536.81
2022-10-04T01:14:12.752Z,101529.84
2022-10-04T01:16:44.481Z,101525.31
2022-10-04T01:19:16.261Z,101517.06
2022-10-04T01:21:47.738Z,101525.72
2022-10-04T01:24:19.515Z,101529.44
2022-10-04T01:26:51.027Z,101526.56
2022-10-04T01:29:22.784Z,101539.94
2022-10-04T01:31:54.308Z,101525.72
2022-10-04T01:34:26.165Z,101524.91
2022-10-04T01:36:57.641Z,101523.53
2022-10-04T01:39:29.396Z,101521.88
2022-10-04T01:42:01.693Z,101524.78
2022-10-04T01:44:33.468Z,101515.75
2022-10-04T01:47:05.259Z,101516.78
2022-10-04T01:49:37.131Z,101511.84
2022-10-04T01:52:08.603Z,101517.63
2022-10-04T01:54:40.146Z,101513.09
2022-10-04T01:57:12.191Z,101513.91
2022-10-04T01:59:43.657Z,101507.97
2022-10-04T02:02:15.628Z,101510.63
2022-10-04T02:04:48.222Z,101504.91
2022-10-04T02:07:20.171Z,101506.97
2022-10-04T02:09:51.687Z,101507.19
2022-10-04T02:12:23.495Z,101501.66
2022-10-04T02:14:55.596Z,101498.41
2022-10-04T02:17:28.535Z,101492.22
2022-10-04T02:20:01.312Z,101501.28
2022-10-04T02:22:33.124Z,101504.59
2022-10-04T02:25:04.587Z,101509.94
2022-10-04T02:27:36.939Z,101510.31
2022-10-04T02:30:08.429Z,101515.06
2022-10-04T02:32:58.404Z,101511.38
2022-10-04T02:35:29.898Z,101514.44
2022-10-04T02:38:01.911Z,101514.44
2022-10-04T02:40:33.753Z,101509.09
2022-10-04T02:43:05.756Z,101512.16
2022-10-04T02:45:37.211Z,101508.25
2022-10-04T02:48:08.955Z,101499.63
2022-10-04T02:50:40.407Z,101502.91
2022-10-04T02:53:12.229Z,101493.88
2022-10-04T02:55:43.695Z,101498.38
2022-10-04T02:58:15.477Z,101504.16
2022-10-04T03:00:47.015Z,101502.31
2022-10-04T03:03:18.924Z,101499.66
2022-10-04T03:05:50.690Z,101498.41
2022-10-04T03:08:22.159Z,101505.81
2022-10-04T03:10:53.665Z,101497.81
2022-10-04T03:13:25.130Z,101499.47
2022-10-04T03:15:56.983Z,101496.38
2022-10-04T03:18:28.921Z,101498.44
2022-10-04T03:21:00.703Z,101489.81
2022-10-04T03:23:33.860Z,101490.44
2022-10-04T03:26:05.326Z,101502.97
2022-10-04T03:28:37.140Z,101494.75
2022-10-04T03:31:08.708Z,101495.16
2022-10-04T03:33:40.688Z,101503.78
2022-10-04T03:36:12.185Z,101498.88
2022-10-04T03:38:44.030Z,101500.91
2022-10-04T03:41:16.583Z,101492.47
2022-10-04T03:43:49.707Z,101493.69
2022-10-04T03:46:22.857Z,101499.25
2022-10-04T03:48:54.642Z,101491.44
2022-10-04T03:51:26.104Z,101501.09
2022-10-04T03:53:58.243Z,101500.47
2022-10-04T03:56:29.703Z,101501.72
2022-10-04T03:59:01.549Z,101498.84
2022-10-04T04:01:33.398Z,101501.09
2022-10-04T04:04:06.091Z,101499.66
2022-10-04T04:06:37.631Z,101502.75
2022-10-04T04:09:09.467Z,101505.84
2022-10-04T04:11:41.149Z,101507.47
2022-10-04T04:14:13.128Z,101516.31
2022-10-04T04:16:44.657Z,101513.63
2022-10-04T04:19:16.875Z,101521.47
2022-10-04T04:21:48.360Z,101522.88
2022-10-04T04:24:24.172Z,101516.50
2022-10-04T04:26:55.635Z,101520.19
2022-10-04T04:29:27.154Z,101515.06
2022-10-04T04:31:58.641Z,101520.22
2022-10-04T04:34:30.444Z,101525.34
2022-10-04T04:37:02.012Z,101517.53
2022-10-04T04:39:36.763Z,101521.41
2022-10-04T04:42:08.560Z,101517.09
2022-10-04T04:44:40.041Z,101513.22
2022-10-04T04:47:15.178Z,101515.66
2022-10-04T04:49:49.011Z,101512.59
2022-10-04T04:52:20.859Z,101517.75
2022-10-04T04:54:53.050Z,101513.03
2022-10-04T04:57:24.931Z,101520.19
2022-10-04T04:59:56.448Z,101518.16
2022-10-04T05:02:28.363Z,101516.50
2022-10-04T05:04:59.921Z,101522.06
2022-10-04T05:07:31.673Z,101523.50
2022-10-04T05:10:03.161Z,101519.38
2022-10-04T05:12:35.139Z,101523.50
2022-10-04T05:15:07.146Z,101525.56
2022-10-04T05:17:38.981Z,101520.22
2022-10-04T05:20:10.440Z,101523.91
2022-10-04T05:22:42.492Z,101524.31
2022-10-04T05:25:14.529Z,101522.28
2022-10-04T05:27:46.240Z,101526.38
2022-10-04T05:30:17.692Z,101529.84
2022-10-04T05:32:49.517Z,101536.44
2022-10-04T05:35:21.038Z,101529.25
2022-10-04T05:37:53.623Z,101533.75
2022-10-04T05:40:25.098Z,101527.56
2022-10-04T05:42:58.676Z,101522.16
2022-10-04T05:45:30.204Z,101526.25
2022-10-04T05:48:02.198Z,101523.78
2022-10-04T05:50:33.651Z,101526.63
2022-10-04T05:53:05.804Z,101533.16
2022-10-04T05:55:37.591Z,101543.81
2022-10-04T05:58:09.375Z,101539.72
2022-10-04T06:00:40.880Z,101544.81
2022-10-04T06:03:12.737Z,101538.47
2022-10-04T06:05:44.213Z,101539.63
2022-10-04T06:08:16.175Z,101539.53
2022-10-04T06:10:47.677Z,101535.41
2022-10-04T06:13:19.244Z,101538.88
2022-10-04T06:15:50.760Z,101544.25
2022-10-04T06:18:22.609Z,101535.72
2022-10-04T06:20:54.903Z,101547.78
2022-10-04T06:23:26.887Z,101541.75
2022-10-04T06:25:58.385Z,101545.78
2022-10-04T06:28:30.240Z,101545.94
2022-10-04T06:31:01.799Z,101545.41
2022-10-04T06:33:33.707Z,101550.19
2022-10-04T06:36:06.147Z,101552.47
2022-10-04T06:38:38.044Z,101556.78
2022-10-04T06:41:09.519Z,101564.94
2022-10-04T06:43:41.501Z,101559.59
2022-10-04T06:46:13.126Z,101554.69
2022-10-04T06:48:45.013Z,101562.25
2022-10-04T06:51:16.501Z,101562.31
2022-10-04T06:53:48.305Z,101569.75
2022-10-04T06:56:19.795Z,101573.59
2022-10-04T06:58:52.156Z,101572.81
2022-10-04T07:01:23.735Z,101580.91
2022-10-04T07:03:55.603Z,101570.97
2022-10-04T07:06:27.160Z,101571.22
2022-10-04T07:09:03.410Z,101570.72
2022-10-04T07:11:34.889Z,101577.25
2022-10-04T07:14:06.771Z,101574.13
2022-10-04T07:16:38.330Z,101575.41
2022-10-04T07:19:10.257Z,101578.75
2022-10-04T07:21:46.201Z,101576.13
2022-10-04T07:24:18.728Z,101577.91
2022-10-04T07:26:50.244Z,101578.22
2022-10-04T07:29:22.056Z,101479.84
2022-10-04T07:31:53.550Z,101588.38
2022-10-04T07:34:25.513Z,101588.75
2022-10-04T07:36:57.017Z,101592.72
2022-10-04T07:39:28.856Z,101602.81
2022-10-04T07:42:01.451Z,101591.28
2022-10-04T07:44:33.640Z,101601.38
2022-10-04T07:47:05.127Z,101597.75
2022-10-04T07:49:37.022Z,101594.84
2022-10-04T07:52:08.504Z,101590.84
2022-10-04T07:54:40.320Z,101604.63
2022-10-04T07:57:11.879Z,101607.66
2022-10-04T07:59:43.815Z,101606.13
2022-10-04T08:02:15.385Z,101609.00
2022-10-04T08:04:47.256Z,101614.97
2022-10-04T08:07:18.790Z,101611.63
2022-10-04T08:09:50.639Z,101617.28
2022-10-04T08:12:22.189Z,101610.56
2022-10-04T08:14:54.076Z,101618.59
2022-10-04T08:17:25.615Z,101620.63
2022-10-04T08:19:57.507Z,101631.13
2022-10-04T08:22:29.928Z,101632.41
2022-10-04T08:25:01.798Z,101625.63
2022-10-04T08:27:33.758Z,101624.56
2022-10-04T08:30:05.340Z,101629.59
2022-10-04T08:32:37.279Z,101625.63
2022-10-04T08:35:08.799Z,101628.78
2022-10-04T08:37:40.910Z,101628.88
2022-10-04T08:40:13.433Z,101634.78
2022-10-04T08:42:45.386Z,101635.19
2022-10-04T08:45:16.989Z,101630.72
2022-10-04T08:47:50.229Z,101634.53
2022-10-04T08:50:21.725Z,101631.81
2022-10-04T08:52:53.437Z,101633.03
2022-10-04T08:55:24.920Z,101641.81
2022-10-04T08:57:57.138Z,101634.34
2022-10-04T09:00:29.792Z,101635.59
2022-10-04T09:03:01.805Z,101640.72
2022-10-04T09:05:33.376Z,101626.69
2022-10-04T09:08:05.228Z,101619.22
2022-10-04T09:10:36.782Z,101622.75
2022-10-04T09:13:08.607Z,101627.44
2022-10-04T09:15:40.249Z,101630.03
2022-10-04T09:18:12.118Z,101628.88
2022-10-04T09:20:43.651Z,101631.31
2022-10-04T09:23:15.512Z,101628.25
2022-10-04T09:25:47.043Z,101625.41
2022-10-04T09:28:21.007Z,101628.00
2022-10-04T09:30:53.268Z,101627.94
2022-10-04T09:33:26.224Z,101635.19
2022-10-04T09:35:57.728Z,101627.66
2022-10-04T09:38:29.607Z,101637.09
2022-10-04T09:41:03.728Z,101637.84
2022-10-04T09:43:35.633Z,101636.41
2022-10-04T09:46:07.991Z,101631.56
2022-10-04T09:48:41.104Z,101617.09
2022-10-04T09:51:13.136Z,101619.72
2022-10-04T09:53:46.602Z,101620.88
2022-10-04T09:56:18.205Z,101630.84
2022-10-04T09:58:59.642Z,101612.22
2022-10-04T10:01:31.247Z,101626.44
2022-10-04T10:04:03.481Z,101620.59
2022-10-04T10:06:34.981Z,101620.53
2022-10-04T10:09:06.814Z,101618.28
2022-10-04T10:11:57.035Z,101619.41
2022-10-04T10:14:28.838Z,101617.28
2022-10-04T10:17:00.987Z,101620.16
2022-10-04T10:19:32.926Z,101620.81
2022-10-04T10:22:04.425Z,101616.81
2022-10-04T10:24:36.268Z,101619.84
2022-10-04T10:27:08.293Z,101620.50
2022-10-04T10:29:39.834Z,101618.41
2022-10-04T10:32:11.954Z,101625.09
2022-10-04T10:34:43.468Z,101628.38
2022-10-04T10:37:16.389Z,101626.28
2022-10-04T10:39:47.868Z,101625.09
2022-10-04T10:42:20.141Z,101626.78
2022-10-04T10:44:51.638Z,101623.47
2022-10-04T10:47:23.671Z,101616.00
2022-10-04T10:49:55.188Z,101614.97
2022-10-04T10:52:27.189Z,101617.84
2022-10-04T10:54:59.779Z,101612.28
2022-10-04T10:57:34.208Z,101611.72
2022-10-04T11:00:07.186Z,101614.13
2022-10-04T11:02:49.314Z,101608.59
2022-10-04T11:05:21.940Z,101612.19
2022-10-04T11:07:53.795Z,101606.78
2022-10-04T11:10:26.583Z,101600.38
2022-10-04T11:12:58.423Z,101608.63
2022-10-04T11:15:30.682Z,101611.06
2022-10-04T11:18:02.517Z,101609.34
2022-10-04T11:20:34.049Z,101613.25
2022-10-04T11:23:05.959Z,101622.72
2022-10-04T11:25:39.723Z,101612.75
2022-10-04T11:28:13.290Z,101623.38
2022-10-04T11:30:44.822Z,101612.19
2022-10-04T11:33:17.673Z,101609.59
2022-10-04T11:35:49.498Z,101603.63
2022-10-04T11:38:23.318Z,101594.66
2022-10-04T11:40:55.440Z,101593.03
2022-10-04T11:43:27.229Z,101588.16
2022-10-04T11:46:01.715Z,101587.06
2022-10-04T11:48:33.565Z,101581.72
2022-10-04T11:51:05.775Z,101581.66
2022-10-04T11:53:38.998Z,101587.28
2022-10-04T11:56:10.494Z,101434.97
2022-10-04T11:58:42.772Z,101576.69
2022-10-04T12:01:14.374Z,101571.63
2022-10-04T12:03:46.261Z,101573.00
2022-10-04T12:06:17.889Z,101571.94
2022-10-04T12:08:49.831Z,101571.72
2022-10-04T12:11:21.317Z,101566.22
2022-10-04T12:13:53.319Z,101565.91
2022-10-04T12:16:27.615Z,101566.84
2022-10-04T12:19:00.380Z,101567.78
2022-10-04T12:21:32.742Z,101570.28
2022-10-04T12:24:04.848Z,101564.81
2022-10-04T12:26:36.342Z,101558.72
2022-10-04T12:29:08.181Z,101561.88
2022-10-04T12:31:39.736Z,101548.88
2022-10-04T12:34:17.684Z,101559.16
2022-10-04T12:36:49.207Z,101549.44
2022-10-04T12:39:21.106Z,101556.13
2022-10-04T12:41:52.653Z,101551.38
2022-10-04T12:44:24.485Z,101558.34
2022-10-04T12:46:56.332Z,101551.03
2022-10-04T12:49:28.100Z,101558.81
2022-10-04T12:51:59.627Z,101549.03
2022-10-04T12:54:33.548Z,101554.97
2022-10-04T12:57:05.081Z,101554.22
2022-10-04T12:59:36.884Z,101552.66
2022-10-04T13:02:08.457Z,101556.03
2022-10-04T13:04:40.268Z,101555.41
2022-10-04T13:07:12.163Z,101545.34
2022-10-04T13:09:55.136Z,101558.53
2022-10-04T13:12:35.314Z,101542.28
2022-10-04T13:15:07.247Z,101539.16
2022-10-04T13:17:39.242Z,101540.38
2022-10-04T13:20:10.747Z,101531.22
2022-10-04T13:22:56.352Z,101529.19
2022-10-04T13:25:28.660Z,101525.22
2022-10-04T13:28:00.241Z,101518.94
2022-10-04T13:30:32.346Z,101517.28
2022-10-04T13:33:03.897Z,101508.22
2022-10-04T13:35:37.010Z,101512.59
2022-10-04T13:38:08.862Z,101521.47
2022-10-04T13:40:40.372Z,101514.19
2022-10-04T13:43:13.911Z,101517.94
2022-10-04T13:45:45.480Z,101502.72
2022-10-04T13:48:21.720Z,101505.03
2022-10-04T13:50:53.554Z,101498.38
2022-10-04T13:53:44.015Z,101500.34
2022-10-04T13:56:34.190Z,101489.44
2022-10-04T13:59:06.067Z,101483.84
2022-10-04T14:01:37.632Z,101486.22
2022-10-04T14:04:09.422Z,101487.59
2022-10-04T14:06:41.021Z,101489.19
2022-10-04T14:09:13.449Z,101478.44
2022-10-04T14:11:45.187Z,101474.16
2022-10-04T14:14:17.779Z,101466.16
2022-10-04T14:16:49.338Z,101474.88
2022-10-04T14:19:21.552Z,101468.59
2022-10-04T14:21:53.083Z,101466.59
2022-10-04T14:24:24.901Z,101467.78
2022-10-04T14:26:56.350Z,101467.66
2022-10-04T14:29:28.822Z,101468.88
2022-10-04T14:32:00.329Z,101456.66
2022-10-04T14:34:32.340Z,101455.72
2022-10-04T14:37:04.399Z,101459.09
2022-10-04T14:39:35.883Z,101448.44
2022-10-04T14:42:07.377Z,101455.19
2022-10-04T14:44:41.654Z,101460.53
2022-10-04T14:47:16.387Z,101457.22
2022-10-04T14:49:48.212Z,101457.00
2022-10-04T14:52:20.558Z,101447.25
2022-10-04T14:54:52.699Z,101447.53
2022-10-04T14:57:24.159Z,101440.16
2022-10-04T14:59:56.196Z,101448.97
2022-10-04T15:02:31.652Z,101442.44
2022-10-04T15:05:03.595Z,101432.69
2022-10-04T15:07:35.041Z,101435.50
2022-10-04T15:10:06.987Z,101425.09
2022-10-04T15:13:05.711Z,101424.34
2022-10-04T15:15:30.312Z,101426.38
2022-10-04T15:18:03.401Z,101420.41
2022-10-04T15:20:34.879Z,101426.41
2022-10-04T15:23:06.685Z,101417.44
2022-10-04T15:25:39.236Z,101418.81
2022-10-04T15:28:11.125Z,101416.16
2022-10-04T15:30:42.638Z,101418.72
2022-10-04T15:33:14.514Z,101419.94
2022-10-04T15:35:46.130Z,101418.34
2022-10-04T15:38:17.916Z,101422.72
2022-10-04T15:40:49.483Z,101426.22
2022-10-04T15:43:21.490Z,101434.38
2022-10-04T15:45:53.012Z,101438.38
2022-10-04T15:48:24.855Z,101437.47
2022-10-04T15:50:56.303Z,101433.78
2022-10-04T15:53:28.229Z,101443.09
2022-10-04T15:55:59.683Z,101441.38
2022-10-04T15:58:31.556Z,101441.44
2022-10-04T16:01:03.864Z,101444.84
2022-10-04T16:03:35.709Z,101426.38
2022-10-04T16:06:07.265Z,101323.16
2022-10-04T16:08:41.726Z,101422.69
2022-10-04T16:11:13.183Z,101420.06
2022-10-04T16:13:45.757Z,101429.66
2022-10-04T16:16:26.144Z,101424.22
2022-10-04T16:18:58.158Z,101428.50
2022-10-04T16:21:29.638Z,101426.25
2022-10-04T16:24:01.599Z,101432.00
2022-10-04T16:26:33.845Z,101427.00
2022-10-04T16:29:05.636Z,101427.03
2022-10-04T16:31:37.144Z,101415.44
2022-10-04T16:34:09.046Z,101413.59
2022-10-04T16:36:40.531Z,101406.72
2022-10-04T16:39:31.104Z,101403.56
2022-10-04T16:42:02.694Z,101405.75
2022-10-04T16:44:34.577Z,101413.47
2022-10-04T16:47:07.004Z,101419.53
2022-10-04T16:49:41.316Z,101432.72
2022-10-04T16:52:13.313Z,101423.16
2022-10-04T16:54:45.112Z,101428.88
2022-10-04T16:57:16.648Z,101427.06
2022-10-04T16:59:48.389Z,101446.09
2022-10-04T17:02:19.855Z,101440.47
2022-10-04T17:04:55.913Z,101438.72
2022-10-04T17:07:27.445Z,101432.63
2022-10-04T17:09:59.261Z,101450.22
2022-10-04T17:12:35.196Z,101452.16
2022-10-04T17:15:07.655Z,101448.50
2022-10-04T17:17:39.152Z,101450.91
2022-10-04T17:20:11.112Z,101451.44
2022-10-04T17:22:42.588Z,101448.19
2022-10-04T17:25:14.616Z,101454.00
2022-10-04T17:27:46.177Z,101453.81
2022-10-04T17:30:18.601Z,101454.50
2022-10-04T17:32:50.078Z,101456.22
2022-10-04T17:35:21.906Z,101450.88
2022-10-04T17:37:53.465Z,101451.84
2022-10-04T17:40:27.801Z,101446.72
2022-10-04T17:43:00.793Z,101450.28
2022-10-04T17:45:32.312Z,101453.56
2022-10-04T17:48:22.894Z,101465.31
2022-10-04T17:51:12.983Z,101451.81
2022-10-04T17:54:03.616Z,101437.31
2022-10-04T17:56:35.089Z,101424.56
2022-10-04T17:59:06.873Z,101435.75
2022-10-04T18:01:38.683Z,101446.06
2022-10-04T18:04:10.604Z,101456.41
2022-10-04T18:06:43.025Z,101440.38
2022-10-04T18:09:19.416Z,101438.38
2022-10-04T18:11:51.101Z,101432.19
2022-10-04T18:14:22.901Z,101433.44
2022-10-04T18:16:54.697Z,101429.13
2022-10-04T18:19:26.545Z,101443.78
2022-10-04T18:21:58.004Z,101444.88
2022-10-04T18:24:30.762Z,101441.41
2022-10-04T18:27:05.103Z,101449.66
2022-10-04T18:29:38.219Z,101442.53
2022-10-04T18:32:09.687Z,101439.47
2022-10-04T18:34:42.078Z,101438.28
2022-10-04T18:37:13.658Z,101446.16
2022-10-04T18:39:45.488Z,101439.59
2022-10-04T18:42:17.030Z,101431.41
2022-10-04T18:44:48.874Z,101419.94
2022-10-04T18:47:21.197Z,101424.88
2022-10-04T18:49:52.745Z,101415.00
2022-10-04T18:52:24.249Z,101417.50
2022-10-04T18:54:56.157Z,101415.25
2022-10-04T18:57:27.657Z,101420.44
2022-10-04T19:00:18.169Z,101424.56
2022-10-04T19:02:49.977Z,101430.94
2022-10-04T19:05:23.615Z,101441.47
2022-10-04T19:07:55.424Z,101434.09
2022-10-04T19:10:27.089Z,101435.94
2022-10-04T19:12:59.094Z,101444.41
2022-10-04T19:15:30.632Z,101431.88
2022-10-04T19:18:02.454Z,101432.50
2022-10-04T19:20:33.938Z,101429.66
2022-10-04T19:23:07.276Z,101427.59
2022-10-04T19:25:39.371Z,101426.75
2022-10-04T19:28:11.614Z,101437.47
2022-10-04T19:30:43.370Z,101431.72
2022-10-04T19:33:15.407Z,101442.84
2022-10-04T19:35:46.975Z,101434.22
2022-10-04T19:38:18.803Z,101433.00
2022-10-04T19:40:50.268Z,101432.19
2022-10-04T19:43:22.165Z,101447.81
2022-10-04T19:45:53.760Z,101439.19
2022-10-04T19:48:25.936Z,101448.25
2022-10-04T19:50:59.653Z,101448.06
2022-10-04T19:53:31.557Z,101454.44
2022-10-04T19:56:03.028Z,101452.38
2022-10-04T19:58:35.044Z,101455.28
2022-10-04T20:01:07.309Z,101462.84
2022-10-04T20:03:39.170Z,101460.19
2022-10-04T20:06:10.692Z,101458.75
2022-10-04T20:08:42.272Z,101458.34
2022-10-04T20:11:13.746Z,101454.25
2022-10-04T20:13:45.582Z,101447.47
2022-10-04T20:16:17.317Z,101449.34
2022-10-04T20:18:50.178Z,101447.69
2022-10-04T20:21:26.181Z,101455.91
2022-10-04T20:23:59.346Z,101455.09
2022-10-04T20:26:53.732Z,101451.63
2022-10-04T20:29:26.331Z,101455.31
2022-10-04T20:31:58.365Z,101455.69
2022-10-04T20:34:29.856Z,101447.69
2022-10-04T20:37:01.735Z,101445.84
2022-10-04T20:39:33.237Z,101440.94
2022-10-04T20:42:20.231Z,101429.84
2022-10-04T20:44:54.494Z,101427.81
2022-10-04T20:47:28.221Z,101434.38
2022-10-04T20:50:00.554Z,101446.28
2022-10-04T20:52:32.576Z,101440.34
2022-10-04T20:55:06.447Z,101443.44
2022-10-04T20:57:40.698Z,101432.75
2022-10-04T21:00:12.323Z,101434.19
2022-10-04T21:02:44.171Z,101429.28
2022-10-04T21:05:16.058Z,101434.41
2022-10-04T21:07:47.815Z,101430.25
2022-10-04T21:10:19.775Z,101437.66
2022-10-04T21:12:51.543Z,101429.28
2022-10-04T21:15:23.064Z,101425.34
2022-10-04T21:17:54.545Z,101424.31
2022-10-04T21:20:26.045Z,101431.28
2022-10-04T21:22:57.900Z,101430.47
2022-10-04T21:25:30.929Z,101438.91
2022-10-04T21:28:02.814Z,101439.53
2022-10-04T21:30:34.319Z,101428.25
2022-10-04T21:33:06.181Z,101419.59
2022-10-04T21:35:37.652Z,101408.91
2022-10-04T21:38:09.419Z,101405.25
2022-10-04T21:40:40.924Z,101391.06
2022-10-04T21:43:12.688Z,101393.94
2022-10-04T21:45:44.286Z,101401.94
2022-10-04T21:48:16.342Z,101387.97
2022-10-04T21:50:47.827Z,101390.84
2022-10-04T21:53:19.352Z,101384.69
2022-10-04T21:55:50.906Z,101386.97
2022-10-04T21:58:23.033Z,101383.06
2022-10-04T22:00:54.520Z,101384.31
2022-10-04T22:03:26.381Z,101383.47
2022-10-04T22:05:57.885Z,101382.25
2022-10-04T22:08:29.813Z,101390.25
2022-10-04T22:11:01.339Z,101382.47
2022-10-04T22:13:33.360Z,101382.25
2022-10-04T22:16:04.910Z,101369.34
2022-10-04T22:18:36.825Z,101367.50
2022-10-04T22:21:08.322Z,101376.53
2022-10-04T22:23:40.439Z,101377.75
2022-10-04T22:26:12.156Z,101373.66
2022-10-04T22:28:44.007Z,101365.22
2022-10-04T22:31:15.570Z,101363.56
2022-10-04T22:33:47.520Z,101354.34
2022-10-04T22:36:19.118Z,101358.84
2022-10-04T22:38:50.633Z,101364.19
2022-10-04T22:41:22.109Z,101355.38
2022-10-04T22:43:53.858Z,101365.63
2022-10-04T22:46:25.446Z,101344.50
2022-10-04T22:48:57.399Z,101345.72
2022-10-04T22:51:28.889Z,101344.91
2022-10-04T22:54:00.721Z,101343.28
2022-10-04T22:56:32.215Z,101328.28
2022-10-04T22:59:03.996Z,101324.41
2022-10-04T23:01:35.475Z,101329.31
2022-10-04T23:04:07.378Z,101326.44
2022-10-04T23:06:38.853Z,101340.59
2022-10-04T23:09:10.412Z,101330.16
2022-10-04T23:11:41.880Z,101342.66
2022-10-04T23:14:13.857Z,101337.53
2022-10-04T23:16:45.837Z,101338.75
2022-10-04T23:19:20.684Z,101331.16
2022-10-04T23:21:52.509Z,101336.50
2022-10-04T23:24:24.051Z,101334.03
2022-10-04T23:26:56.574Z,101329.13
2022-10-04T23:29:28.058Z,101329.31
2022-10-04T23:31:59.995Z,101332.19
2022-10-04T23:34:31.571Z,101329.31
2022-10-04T23:37:03.350Z,101328.09
2022-10-04T23:39:34.899Z,101321.50
2022-10-04T23:42:06.663Z,101311.25
2022-10-04T23:44:38.177Z,101304.06
2022-10-04T23:47:10.052Z,101307.97
2022-10-04T23:49:41.531Z,101321.91
2022-10-04T23:52:13.366Z,101318.41
2022-10-04T23:54:44.927Z,101321.69
2022-10-04T23:57:16.765Z,101318.22
2022-10-04T23:59:48.232Z,101322.28
